sensor_id;sensor_type;location;lat;lon;timestamp;temperature;humidity
14144;DHT22;7152;48.348;10.980;2024-02-04T16:50:31;8.90;99.90
14144;DHT22;7152;48.348;10.980;2024-02-04T16:52:57;8.90;99.90
14144;DHT22;7152;48.348;10.980;2024-02-04T16:55:22;8.90;99.90
14144;DHT22;7152;48.348;10.980;2024-02-04T16:57:48;8.90;99.90
14144;DHT22;7152;48.348;10.980;2024-02-04T17:00:15;9.00;99.90
14144;DHT22;7152;48.348;10.980;2024-02-04T17:02:44;9.00;99.90
14144;DHT22;7152;48.348;10.980;2024-02-04T17:05:10;9.00;99.90
14144;DHT22;7152;48.348;10.980;2024-02-04T17:07:37;9.00;99.90
14144;DHT22;7152;48.348;10.980;2024-02-04T17:10:04;9.00;99.90
14144;DHT22;7152;48.348;10.980;2024-02-04T17:12:31;9.00;99.90
14144;DHT22;7152;48.348;10.980;2024-02-04T17:14:58;9.10;99.90
14144;DHT22;7152;48.348;10.980;2024-02-04T17:17:24;9.10;99.90
14144;DHT22;7152;48.348;10.980;2024-02-04T17:22:28;9.00;99.90
14144;DHT22;7152;48.348;10.980;2024-02-04T17:25:02;9.00;99.90
14144;DHT22;7152;48.348;10.980;2024-02-04T17:27:31;9.00;99.90
14144;DHT22;7152;48.348;10.980;2024-02-04T17:29:59;8.90;99.90
14144;DHT22;7152;48.348;10.980;2024-02-04T17:32:27;8.90;99.90
14144;DHT22;7152;48.348;10.980;2024-02-04T17:34:55;8.90;99.90
14144;DHT22;7152;48.348;10.980;2024-02-04T17:37:23;8.90;99.90
14144;DHT22;7152;48.348;10.980;2024-02-04T17:39:49;8.90;99.90
14144;DHT22;7152;48.348;10.980;2024-02-04T17:42:15;8.90;99.90
14144;DHT22;7152;48.348;10.980;2024-02-04T17:44:40;8.90;99.90
14144;DHT22;7152;48.348;10.980;2024-02-04T17:47:06;8.80;99.90
14144;DHT22;7152;48.348;10.980;2024-02-04T17:49:32;8.90;99.90
14144;DHT22;7152;48.348;10.980;2024-02-04T17:51:58;8.80;99.90
14144;DHT22;7152;48.348;10.980;2024-02-04T17:54:24;8.80;99.90
14144;DHT22;7152;48.348;10.980;2024-02-04T17:56:51;8.70;99.90
14144;DHT22;7152;48.348;10.980;2024-02-04T17:59:18;8.70;99.90
14144;DHT22;7152;48.348;10.980;2024-02-04T18:01:44;8.70;99.90
14144;DHT22;7152;48.348;10.980;2024-02-04T18:04:10;8.60;99.90
14144;DHT22;7152;48.348;10.980;2024-02-04T18:06:37;8.60;99.90
14144;DHT22;7152;48.348;10.980;2024-02-04T18:09:05;8.50;99.90
14144;DHT22;7152;48.348;10.980;2024-02-04T18:11:33;8.50;99.90
14144;DHT22;7152;48.348;10.980;2024-02-04T18:14:00;8.40;99.90
14144;DHT22;7152;48.348;10.980;2024-02-04T18:16:30;8.40;99.90
14144;DHT22;7152;48.348;10.980;2024-02-04T18:18:56;8.40;99.90
14144;DHT22;7152;48.348;10.980;2024-02-04T18:21:26;8.40;99.90
14144;DHT22;7152;48.348;10.980;2024-02-04T18:23:52;8.30;99.90
14144;DHT22;7152;48.348;10.980;2024-02-04T18:28:47;8.20;99.90
14144;DHT22;7152;48.348;10.980;2024-02-04T18:31:14;8.20;99.90
14144;DHT22;7152;48.348;10.980;2024-02-04T18:33:41;8.20;99.90
14144;DHT22;7152;48.348;10.980;2024-02-04T18:36:07;8.20;99.90
14144;DHT22;7152;48.348;10.980;2024-02-04T18:38:34;8.10;99.90
14144;DHT22;7152;48.348;10.980;2024-02-04T18:40:59;8.10;99.90
14144;DHT22;7152;48.348;10.980;2024-02-04T18:43:26;8.00;99.90
14144;DHT22;7152;48.348;10.980;2024-02-04T18:45:51;8.00;99.90
14144;DHT22;7152;48.348;10.980;2024-02-04T18:48:21;8.00;99.90
14144;DHT22;7152;48.348;10.980;2024-02-04T18:50:47;7.90;99.90
14144;DHT22;7152;48.348;10.980;2024-02-04T18:53:13;7.90;99.90
14144;DHT22;7152;48.348;10.980;2024-02-04T18:55:39;7.80;99.90
14144;DHT22;7152;48.348;10.980;2024-02-04T18:58:06;7.80;99.90
14144;DHT22;7152;48.348;10.980;2024-02-04T19:00:33;7.80;99.90
14144;DHT22;7152;48.348;10.980;2024-02-04T19:02:59;7.80;99.90
14144;DHT22;7152;48.348;10.980;2024-02-04T19:05:25;7.70;99.90
14144;DHT22;7152;48.348;10.980;2024-02-04T19:07:51;7.70;99.90
14144;DHT22;7152;48.348;10.980;2024-02-04T19:10:17;7.70;99.90
14144;DHT22;7152;48.348;10.980;2024-02-04T19:12:43;7.70;99.90
14144;DHT22;7152;48.348;10.980;2024-02-04T19:15:10;7.70;99.90
14144;DHT22;7152;48.348;10.980;2024-02-04T19:17:36;7.60;99.90
14144;DHT22;7152;48.348;10.980;2024-02-04T19:20:03;7.60;99.90
14144;DHT22;7152;48.348;10.980;2024-02-04T19:22:29;7.60;99.90
14144;DHT22;7152;48.348;10.980;2024-02-04T19:24:55;7.60;99.90
14144;DHT22;7152;48.348;10.980;2024-02-04T19:27:21;7.60;99.90
14144;DHT22;7152;48.348;10.980;2024-02-04T19:29:47;7.60;99.90
14144;DHT22;7152;48.348;10.980;2024-02-04T19:32:13;7.60;99.90
14144;DHT22;7152;48.348;10.980;2024-02-04T19:34:39;7.50;99.90
14144;DHT22;7152;48.348;10.980;2024-02-04T19:37:05;7.50;99.90
14144;DHT22;7152;48.348;10.980;2024-02-04T19:39:31;7.50;99.90
14144;DHT22;7152;48.348;10.980;2024-02-04T19:41:57;7.50;99.90
14144;DHT22;7152;48.348;10.980;2024-02-04T19:44:24;7.50;99.90
14144;DHT22;7152;48.348;10.980;2024-02-04T19:46:50;7.50;99.90
14144;DHT22;7152;48.348;10.980;2024-02-04T19:49:16;7.40;99.90
14144;DHT22;7152;48.348;10.980;2024-02-04T19:51:42;7.50;99.90
14144;DHT22;7152;48.348;10.980;2024-02-04T19:54:08;7.40;99.90
14144;DHT22;7152;48.348;10.980;2024-02-04T19:56:36;7.40;99.90
14144;DHT22;7152;48.348;10.980;2024-02-04T19:59:02;7.40;99.90
14144;DHT22;7152;48.348;10.980;2024-02-04T20:01:32;7.40;99.90
14144;DHT22;7152;48.348;10.980;2024-02-04T20:03:58;7.40;99.90
14144;DHT22;7152;48.348;10.980;2024-02-04T20:06:24;7.50;99.90
14144;DHT22;7152;48.348;10.980;2024-02-04T20:08:50;7.50;99.90
14144;DHT22;7152;48.348;10.980;2024-02-04T20:11:16;7.50;99.90
14144;DHT22;7152;48.348;10.980;2024-02-04T20:13:42;7.50;99.90
14144;DHT22;7152;48.348;10.980;2024-02-04T20:16:11;7.40;99.90
14144;DHT22;7152;48.348;10.980;2024-02-04T20:18:38;7.50;99.90
14144;DHT22;7152;48.348;10.980;2024-02-04T20:21:05;7.40;99.90
14144;DHT22;7152;48.348;10.980;2024-02-04T20:23:31;7.50;99.90
14144;DHT22;7152;48.348;10.980;2024-02-04T20:25:57;7.40;99.90
14144;DHT22;7152;48.348;10.980;2024-02-04T20:28:23;7.40;99.90
14144;DHT22;7152;48.348;10.980;2024-02-04T20:30:50;7.40;99.90
14144;DHT22;7152;48.348;10.980;2024-02-04T20:33:16;7.40;99.90
14144;DHT22;7152;48.348;10.980;2024-02-04T20:35:41;7.40;99.90
14144;DHT22;7152;48.348;10.980;2024-02-04T20:38:09;7.30;99.90
14144;DHT22;7152;48.348;10.980;2024-02-04T20:40:35;7.40;99.90
14144;DHT22;7152;48.348;10.980;2024-02-04T20:43:01;7.40;99.90
14144;DHT22;7152;48.348;10.980;2024-02-04T20:45:30;7.40;99.90
14144;DHT22;7152;48.348;10.980;2024-02-04T20:47:56;7.30;99.90
14144;DHT22;7152;48.348;10.980;2024-02-04T20:50:24;7.40;99.90
14144;DHT22;7152;48.348;10.980;2024-02-04T20:52:50;7.40;99.90
14144;DHT22;7152;48.348;10.980;2024-02-04T20:55:16;7.40;99.90
14144;DHT22;7152;48.348;10.980;2024-02-04T20:57:42;7.40;99.90
14144;DHT22;7152;48.348;10.980;2024-02-04T21:00:08;7.40;99.90
14144;DHT22;7152;48.348;10.980;2024-02-04T21:02:34;7.40;99.90
14144;DHT22;7152;48.348;10.980;2024-02-04T21:05:00;7.40;99.90
14144;DHT22;7152;48.348;10.980;2024-02-04T21:07:27;7.40;99.90
14144;DHT22;7152;48.348;10.980;2024-02-04T21:09:53;7.40;99.90
14144;DHT22;7152;48.348;10.980;2024-02-04T21:12:19;7.40;99.90
14144;DHT22;7152;48.348;10.980;2024-02-04T21:14:44;7.40;99.90
14144;DHT22;7152;48.348;10.980;2024-02-04T21:17:10;7.40;99.90
14144;DHT22;7152;48.348;10.980;2024-02-04T21:19:37;7.40;99.90
14144;DHT22;7152;48.348;10.980;2024-02-04T21:22:04;7.30;99.90
14144;DHT22;7152;48.348;10.980;2024-02-04T21:24:30;7.30;99.90
14144;DHT22;7152;48.348;10.980;2024-02-04T21:26:56;7.40;99.90
14144;DHT22;7152;48.348;10.980;2024-02-04T21:29:21;7.30;99.90
14144;DHT22;7152;48.348;10.980;2024-02-04T21:31:47;7.30;99.90
14144;DHT22;7152;48.348;10.980;2024-02-04T21:34:13;7.30;99.90
14144;DHT22;7152;48.348;10.980;2024-02-04T21:36:42;7.30;99.90
14144;DHT22;7152;48.348;10.980;2024-02-04T21:39:09;7.30;99.90
14144;DHT22;7152;48.348;10.980;2024-02-04T21:41:35;7.20;99.90
14144;DHT22;7152;48.348;10.980;2024-02-04T21:44:01;7.20;99.90
